createdAt,value
2022-08-09T00:00:00.217Z,22.70
2022-08-09T00:04:05.772Z,22.60
2022-08-09T00:07:57.358Z,22.40
2022-08-09T00:12:03.726Z,22.30
2022-08-09T00:16:03.765Z,22.10
2022-08-09T00:20:06.497Z,22.10
2022-08-09T00:24:09.682Z,22.20
2022-08-09T00:28:11.707Z,22.20
2022-08-09T00:32:12.998Z,22.30
2022-08-09T00:36:16.237Z,22.30
2022-08-09T00:40:19.716Z,22.10
2022-08-09T00:44:26.236Z,22.10
2022-08-09T00:48:23.743Z,22.20
2022-08-09T00:52:30.311Z,22.10
2022-08-09T00:56:32.594Z,22.00
2022-08-09T01:00:36.977Z,22.10
2022-08-09T01:05:14.189Z,22.10
2022-08-09T01:09:36.930Z,22.20
2022-08-09T01:13:58.962Z,22.00
2022-08-09T01:18:05.067Z,22.00
2022-08-09T01:22:28.479Z,21.80
2022-08-09T01:26:42.673Z,21.60
2022-08-09T01:30:51.721Z,21.60
2022-08-09T01:34:51.931Z,21.50
2022-08-09T01:38:56.307Z,21.30
2022-08-09T01:42:58.142Z,21.20
2022-08-09T01:47:02.233Z,21.20
2022-08-09T01:51:04.196Z,21.20
2022-08-09T01:55:08.048Z,21.10
2022-08-09T01:59:15.992Z,21.00
2022-08-09T02:03:18.451Z,20.90
2022-08-09T02:08:39.538Z,20.80
2022-08-09T02:11:42.638Z,21.00
2022-08-09T02:15:49.198Z,20.80
2022-08-09T02:19:43.476Z,20.80
2022-08-09T02:23:48.256Z,20.80
2022-08-09T02:28:03.716Z,20.70
2022-08-09T02:32:07.547Z,20.60
2022-08-09T02:36:13.619Z,20.70
2022-08-09T02:40:24.800Z,20.50
2022-08-09T02:44:29.346Z,20.40
2022-08-09T02:48:31.694Z,20.40
2022-08-09T02:52:39.920Z,20.40
2022-08-09T02:56:51.243Z,20.30
2022-08-09T03:00:58.374Z,20.30
2022-08-09T03:04:54.231Z,20.30
2022-08-09T03:08:56.656Z,20.30
2022-08-09T03:12:59.763Z,20.20
2022-08-09T03:17:02.733Z,20.10
2022-08-09T03:21:07.380Z,20.00
2022-08-09T03:25:57.055Z,19.90
2022-08-09T03:29:22.685Z,19.70
2022-08-09T03:33:20.811Z,19.90
2022-08-09T03:37:55.450Z,19.90
2022-08-09T03:41:29.728Z,19.80
2022-08-09T03:46:05.324Z,19.90
2022-08-09T03:49:35.786Z,19.80
2022-08-09T03:53:39.346Z,19.60
2022-08-09T03:57:44.653Z,19.50
2022-08-09T04:01:46.421Z,19.50
2022-08-09T04:05:47.961Z,19.60
2022-08-09T04:09:53.007Z,19.60
2022-08-09T04:14:53.172Z,19.60
2022-08-09T04:17:57.779Z,19.70
2022-08-09T04:21:59.247Z,19.70
2022-08-09T04:26:00.708Z,19.80
2022-08-09T04:30:02.198Z,19.70
2022-08-09T04:34:03.753Z,19.60
2022-08-09T04:38:05.164Z,19.60
2022-08-09T04:42:09.344Z,19.60
2022-08-09T04:46:10.636Z,19.50
2022-08-09T04:50:13.736Z,19.60
2022-08-09T04:54:15.326Z,20.10
2022-08-09T04:58:17.383Z,20.50
2022-08-09T05:02:19.796Z,20.70
2022-08-09T05:06:27.422Z,20.90
2022-08-09T05:10:24.838Z,21.20
2022-08-09T05:14:26.971Z,21.50
2022-08-09T05:18:37.820Z,21.40
2022-08-09T05:23:56.698Z,21.50
2022-08-09T05:26:46.074Z,21.50
2022-08-09T05:30:42.294Z,21.40
2022-08-09T05:34:45.803Z,21.60
2022-08-09T05:38:47.284Z,21.60
2022-08-09T05:42:49.271Z,21.80
2022-08-09T05:46:51.133Z,21.80
2022-08-09T05:51:12.098Z,22.00
2022-08-09T05:54:57.477Z,21.90
2022-08-09T05:59:01.228Z,22.10
2022-08-09T06:03:04.106Z,22.10
2022-08-09T06:07:07.101Z,22.00
2022-08-09T06:11:17.450Z,22.00
2022-08-09T06:15:14.483Z,22.00
2022-08-09T06:19:15.770Z,22.20
2022-08-09T06:23:17.062Z,22.30
2022-08-09T06:27:18.455Z,22.20
2022-08-09T06:31:19.774Z,22.50
2022-08-09T06:35:23.115Z,22.80
2022-08-09T06:39:48.181Z,22.90
2022-08-09T06:43:34.289Z,23.10
2022-08-09T06:47:40.059Z,23.00
2022-08-09T06:51:40.036Z,22.80
2022-08-09T06:55:42.129Z,23.20
2022-08-09T07:00:51.562Z,23.50
2022-08-09T07:03:52.421Z,23.40
2022-08-09T07:08:00.271Z,23.10
2022-08-09T07:11:59.353Z,23.30
2022-08-09T07:16:44.010Z,23.30
2022-08-09T07:20:04.670Z,23.60
2022-08-09T07:24:08.528Z,23.90
2022-08-09T07:28:11.608Z,24.20
2022-08-09T07:32:14.649Z,24.30
2022-08-09T07:36:16.613Z,24.40
2022-08-09T07:40:25.152Z,24.60
2022-08-09T07:44:32.827Z,24.80
2022-08-09T07:48:30.462Z,25.00
2022-08-09T07:52:29.293Z,25.10
2022-08-09T07:56:33.070Z,25.00
2022-08-09T08:00:36.139Z,25.20
2022-08-09T08:04:38.228Z,25.20
2022-08-09T08:09:00.513Z,25.20
2022-08-09T08:12:46.474Z,25.60
2022-08-09T08:17:01.101Z,25.90
2022-08-09T08:20:50.623Z,26.10
2022-08-09T08:24:53.808Z,26.60
2022-08-09T08:28:56.860Z,27.10
2022-08-09T08:32:58.057Z,27.50
2022-08-09T08:36:59.296Z,27.70
2022-08-09T08:41:06.283Z,27.90
2022-08-09T08:45:11.808Z,28.20
2022-08-09T08:49:12.778Z,28.70
2022-08-09T08:53:16.122Z,29.00
2022-08-09T08:57:19.607Z,29.40
2022-08-09T09:01:24.922Z,29.80
2022-08-09T09:05:58.743Z,30.20
2022-08-09T09:09:57.991Z,30.70
2022-08-09T09:13:57.528Z,31.10
2022-08-09T09:17:51.729Z,31.50
2022-08-09T09:21:58.207Z,31.40
2022-08-09T09:26:02.078Z,31.50
2022-08-09T09:30:22.767Z,31.80
2022-08-09T09:34:18.098Z,31.90
2022-08-09T09:38:36.321Z,31.80
2022-08-09T09:42:27.152Z,32.50
2022-08-09T09:46:51.452Z,32.50
2022-08-09T09:50:50.558Z,32.60
2022-08-09T09:54:48.760Z,32.50
2022-08-09T09:58:49.724Z,31.90
2022-08-09T10:02:52.851Z,32.20
2022-08-09T10:06:54.387Z,32.60
2022-08-09T10:10:55.922Z,32.00
2022-08-09T10:15:17.607Z,32.30
2022-08-09T10:19:17.602Z,32.20
2022-08-09T10:23:22.315Z,32.40
2022-08-09T10:27:25.026Z,32.90
2022-08-09T10:35:30.980Z,32.90
2022-08-09T10:39:40.737Z,32.90
2022-08-09T10:43:46.986Z,33.70
2022-08-09T10:48:19.301Z,32.70
2022-08-09T10:52:26.504Z,32.80
2022-08-09T10:56:30.755Z,32.90
2022-08-09T11:00:35.340Z,32.40
2022-08-09T11:04:36.892Z,32.20
2022-08-09T11:08:47.631Z,32.30
2022-08-09T11:13:05.167Z,32.90
2022-08-09T11:17:19.441Z,32.80
2022-08-09T11:21:46.038Z,33.20
2022-08-09T11:25:49.467Z,32.70
2022-08-09T11:30:05.907Z,33.30
2022-08-09T11:34:02.158Z,32.90
2022-08-09T11:38:22.369Z,33.70
2022-08-09T11:42:34.474Z,34.30
2022-08-09T11:46:56.800Z,34.80
2022-08-09T11:52:59.052Z,34.80
2022-08-09T11:55:35.019Z,35.10
2022-08-09T11:59:37.936Z,33.70
2022-08-09T12:03:55.142Z,33.20
2022-08-09T12:07:43.288Z,33.00
2022-08-09T12:12:03.188Z,33.00
2022-08-09T12:16:04.427Z,33.10
2022-08-09T12:20:16.749Z,33.00
2022-08-09T12:24:23.956Z,33.40
2022-08-09T12:29:15.033Z,33.40
2022-08-09T12:32:29.611Z,33.20
2022-08-09T12:36:34.086Z,33.20
2022-08-09T12:40:39.294Z,33.00
2022-08-09T12:44:42.511Z,33.10
2022-08-09T12:48:45.761Z,33.70
2022-08-09T12:53:08.917Z,34.30
2022-08-09T12:56:54.262Z,33.80
2022-08-09T13:00:56.210Z,34.00
2022-08-09T13:05:02.615Z,33.80
2022-08-09T13:09:08.247Z,33.70
2022-08-09T13:13:11.059Z,33.10
2022-08-09T13:17:21.805Z,33.80
2022-08-09T13:22:35.429Z,34.00
2022-08-09T13:25:42.754Z,33.80
2022-08-09T13:30:04.175Z,33.80
2022-08-09T13:33:58.324Z,34.00
2022-08-09T13:38:02.461Z,34.20
2022-08-09T13:42:12.324Z,34.00
2022-08-09T13:47:14.587Z,33.90
2022-08-09T13:50:29.921Z,33.90
2022-08-09T13:54:19.073Z,33.60
2022-08-09T13:58:21.460Z,33.60
2022-08-09T14:02:26.068Z,33.70
2022-08-09T14:06:29.300Z,33.80
2022-08-09T14:10:37.648Z,34.10
2022-08-09T14:14:34.923Z,33.70
2022-08-09T14:18:35.382Z,33.80
2022-08-09T14:22:38.016Z,33.90
2022-08-09T14:26:40.856Z,34.30
2022-08-09T14:30:42.087Z,34.00
2022-08-09T14:34:43.806Z,33.80
2022-08-09T14:38:46.150Z,33.90
2022-08-09T14:42:49.174Z,33.70
2022-08-09T14:47:04.633Z,33.80
2022-08-09T14:50:54.075Z,33.60
2022-08-09T14:54:56.415Z,33.20
2022-08-09T14:58:57.870Z,33.20
2022-08-09T15:03:00.109Z,33.40
2022-08-09T15:07:01.706Z,33.60
2022-08-09T15:11:07.105Z,33.70
2022-08-09T15:15:08.617Z,33.80
2022-08-09T15:19:17.887Z,33.20
2022-08-09T15:24:00.921Z,32.70
2022-08-09T15:27:16.821Z,32.40
2022-08-09T15:31:19.949Z,32.20
2022-08-09T15:35:40.825Z,32.50
2022-08-09T15:39:25.625Z,32.50
2022-08-09T15:43:37.197Z,32.50
2022-08-09T15:47:52.348Z,32.80
2022-08-09T15:52:03.077Z,33.00
2022-08-09T15:55:58.967Z,32.70
2022-08-09T15:59:48.869Z,32.40
2022-08-09T16:03:50.134Z,32.20
2022-08-09T16:07:51.398Z,32.40
2022-08-09T16:11:57.151Z,32.60
2022-08-09T16:16:10.586Z,32.40
2022-08-09T16:20:04.502Z,32.30
2022-08-09T16:24:04.926Z,32.20
2022-08-09T16:28:07.846Z,32.20
2022-08-09T16:32:33.625Z,31.90
2022-08-09T16:36:18.624Z,31.90
2022-08-09T16:40:29.531Z,32.10
2022-08-09T16:44:21.819Z,31.80
2022-08-09T16:48:43.399Z,31.70
2022-08-09T16:52:28.849Z,31.30
2022-08-09T16:56:32.316Z,31.30
2022-08-09T17:00:34.259Z,31.20
2022-08-09T17:04:35.590Z,31.30
2022-08-09T17:08:43.402Z,31.30
2022-08-09T17:12:44.860Z,31.40
2022-08-09T17:16:47.972Z,31.20
2022-08-09T17:20:53.031Z,31.10
2022-08-09T17:24:54.823Z,31.20
2022-08-09T17:28:56.355Z,31.20
2022-08-09T17:33:04.872Z,31.00
2022-08-09T17:37:05.992Z,31.00
2022-08-09T17:41:09.021Z,30.90
2022-08-09T17:45:16.082Z,30.80
2022-08-09T17:49:18.683Z,30.70
2022-08-09T17:53:22.318Z,30.70
2022-08-09T17:58:03.245Z,30.60
2022-08-09T18:01:24.676Z,30.60
2022-08-09T18:05:38.714Z,30.40
2022-08-09T18:09:40.752Z,30.20
2022-08-09T18:13:43.458Z,30.30
2022-08-09T18:18:03.505Z,30.10
2022-08-09T18:21:40.903Z,29.80
2022-08-09T18:25:50.809Z,29.80
2022-08-09T18:30:35.864Z,29.70
2022-08-09T18:33:53.585Z,29.60
2022-08-09T18:37:54.641Z,29.60
2022-08-09T18:41:55.012Z,29.60
2022-08-09T18:46:47.706Z,29.60
2022-08-09T18:50:02.953Z,29.30
2022-08-09T18:54:12.651Z,29.20
2022-08-09T18:58:06.430Z,29.20
2022-08-09T19:02:08.135Z,29.10
2022-08-09T19:06:14.502Z,29.00
2022-08-09T19:10:17.567Z,28.80
2022-08-09T19:14:29.007Z,28.70
2022-08-09T19:18:34.016Z,28.50
2022-08-09T19:22:25.740Z,28.60
2022-08-09T19:26:32.426Z,28.50
2022-08-09T19:30:32.551Z,28.40
2022-08-09T19:34:40.848Z,28.20
2022-08-09T19:38:39.793Z,28.10
2022-08-09T19:42:40.876Z,28.10
2022-08-09T19:46:50.334Z,28.20
2022-08-09T19:50:53.906Z,28.20
2022-08-09T19:54:51.847Z,28.20
2022-08-09T19:59:40.157Z,28.30
2022-08-09T20:04:10.993Z,28.20
2022-08-09T20:07:05.139Z,28.00
2022-08-09T20:11:06.482Z,28.00
2022-08-09T20:16:33.207Z,28.00
2022-08-09T20:19:49.619Z,28.00
2022-08-09T20:23:16.289Z,27.90
2022-08-09T20:27:18.504Z,27.90
2022-08-09T20:31:19.949Z,27.80
2022-08-09T20:35:22.987Z,27.80
2022-08-09T20:40:14.042Z,27.60
2022-08-09T20:43:27.511Z,27.50
2022-08-09T20:47:48.056Z,27.50
2022-08-09T20:51:31.890Z,27.40
2022-08-09T20:55:47.114Z,27.30
2022-08-09T21:00:20.670Z,27.30
2022-08-09T21:05:48.261Z,27.20
2022-08-09T21:07:44.595Z,27.20
2022-08-09T21:15:52.067Z,27.00
2022-08-09T21:20:18.107Z,26.90
2022-08-09T21:23:59.437Z,26.90
2022-08-09T21:27:58.577Z,26.90
2022-08-09T21:32:00.680Z,26.80
2022-08-09T21:36:05.321Z,26.60
2022-08-09T21:40:11.470Z,26.50
2022-08-09T21:44:15.287Z,26.60
2022-08-09T21:48:15.885Z,26.50
2022-08-09T21:52:20.528Z,26.50
2022-08-09T21:56:43.055Z,26.40
2022-08-09T22:00:32.370Z,26.40
2022-08-09T22:04:55.687Z,26.30
2022-08-09T22:08:34.047Z,26.10
2022-08-09T22:12:36.431Z,25.90
2022-08-09T22:16:39.268Z,25.90
2022-08-09T22:20:41.799Z,25.70
2022-08-09T22:24:53.570Z,25.60
2022-08-09T22:28:54.212Z,25.50
2022-08-09T22:32:49.157Z,25.50
2022-08-09T22:36:52.239Z,25.50
2022-08-09T22:40:58.134Z,25.50
2022-08-09T22:45:00.268Z,25.60
2022-08-09T22:49:09.555Z,25.60
2022-08-09T22:53:04.404Z,25.70
2022-08-09T22:57:05.676Z,25.50
2022-08-09T23:01:08.771Z,25.30
2022-08-09T23:05:10.067Z,25.30
2022-08-09T23:09:11.198Z,25.20
2022-08-09T23:13:12.763Z,25.00
2022-08-09T23:17:14.369Z,25.00
2022-08-09T23:21:15.779Z,24.90
2022-08-09T23:25:18.820Z,24.80
2022-08-09T23:29:20.034Z,24.60
2022-08-09T23:33:22.367Z,24.60
2022-08-09T23:37:25.612Z,24.40
2022-08-09T23:41:27.968Z,24.40
2022-08-09T23:45:36.488Z,24.40
2022-08-09T23:49:32.895Z,24.40
2022-08-09T23:53:37.814Z,24.50
2022-08-09T23:57:48.295Z,24.50
